sensor_id;sensor_type;location;lat;lon;timestamp;P1;durP1;ratioP1;P2;durP2;ratioP2
48375;SDS011;34178;50.904;11.560;2023-10-08T00:02:23;15.10;;;4.55;;
48375;SDS011;34178;50.904;11.560;2023-10-08T00:04:50;16.58;;;4.85;;
48375;SDS011;34178;50.904;11.560;2023-10-08T00:07:25;12.52;;;4.07;;
48375;SDS011;34178;50.904;11.560;2023-10-08T00:09:53;10.88;;;4.10;;
48375;SDS011;34178;50.904;11.560;2023-10-08T00:12:21;12.77;;;4.25;;
48375;SDS011;34178;50.904;11.560;2023-10-08T00:14:47;10.43;;;3.67;;
48375;SDS011;34178;50.904;11.560;2023-10-08T00:17:18;9.98;;;4.30;;
48375;SDS011;34178;50.904;11.560;2023-10-08T00:19:44;14.48;;;4.05;;
48375;SDS011;34178;50.904;11.560;2023-10-08T00:22:10;11.18;;;3.92;;
48375;SDS011;34178;50.904;11.560;2023-10-08T00:24:37;12.45;;;4.80;;
48375;SDS011;34178;50.904;11.560;2023-10-08T00:27:07;13.43;;;4.40;;
48375;SDS011;34178;50.904;11.560;2023-10-08T00:29:33;14.27;;;5.00;;
48375;SDS011;34178;50.904;11.560;2023-10-08T00:31:59;11.68;;;4.05;;
48375;SDS011;34178;50.904;11.560;2023-10-08T00:34:24;11.25;;;4.43;;
48375;SDS011;34178;50.904;11.560;2023-10-08T00:36:52;10.48;;;4.22;;
48375;SDS011;34178;50.904;11.560;2023-10-08T00:39:18;8.43;;;3.78;;
48375;SDS011;34178;50.904;11.560;2023-10-08T00:41:52;12.13;;;4.47;;
48375;SDS011;34178;50.904;11.560;2023-10-08T00:44:23;11.55;;;3.88;;
48375;SDS011;34178;50.904;11.560;2023-10-08T00:46:55;15.63;;;4.45;;
48375;SDS011;34178;50.904;11.560;2023-10-08T00:51:57;13.73;;;4.57;;
48375;SDS011;34178;50.904;11.560;2023-10-08T00:54:25;8.55;;;4.07;;
48375;SDS011;34178;50.904;11.560;2023-10-08T00:56:57;11.20;;;4.35;;
48375;SDS011;34178;50.904;11.560;2023-10-08T00:59:29;11.30;;;4.78;;
48375;SDS011;34178;50.904;11.560;2023-10-08T01:02:02;12.60;;;3.58;;
48375;SDS011;34178;50.904;11.560;2023-10-08T01:04:32;13.85;;;4.30;;
48375;SDS011;34178;50.904;11.560;2023-10-08T01:07:00;9.65;;;4.05;;
48375;SDS011;34178;50.904;11.560;2023-10-08T01:09:38;12.93;;;4.80;;
48375;SDS011;34178;50.904;11.560;2023-10-08T01:14:37;13.20;;;4.97;;
48375;SDS011;34178;50.904;11.560;2023-10-08T01:17:02;18.17;;;4.82;;
48375;SDS011;34178;50.904;11.560;2023-10-08T01:19:30;11.63;;;4.35;;
48375;SDS011;34178;50.904;11.560;2023-10-08T01:22:03;11.48;;;4.40;;
48375;SDS011;34178;50.904;11.560;2023-10-08T01:24:32;10.60;;;4.35;;
48375;SDS011;34178;50.904;11.560;2023-10-08T01:27:00;10.23;;;4.40;;
48375;SDS011;34178;50.904;11.560;2023-10-08T01:29:29;11.25;;;4.20;;
48375;SDS011;34178;50.904;11.560;2023-10-08T01:31:56;13.25;;;4.60;;
48375;SDS011;34178;50.904;11.560;2023-10-08T01:34:22;12.20;;;4.45;;
48375;SDS011;34178;50.904;11.560;2023-10-08T01:37:00;10.00;;;4.15;;
48375;SDS011;34178;50.904;11.560;2023-10-08T01:39:28;9.55;;;4.22;;
48375;SDS011;34178;50.904;11.560;2023-10-08T01:41:57;11.25;;;4.20;;
48375;SDS011;34178;50.904;11.560;2023-10-08T01:44:23;12.50;;;4.82;;
48375;SDS011;34178;50.904;11.560;2023-10-08T01:46:49;18.13;;;4.80;;
48375;SDS011;34178;50.904;11.560;2023-10-08T01:49:15;11.65;;;4.55;;
48375;SDS011;34178;50.904;11.560;2023-10-08T01:51:41;11.75;;;5.22;;
48375;SDS011;34178;50.904;11.560;2023-10-08T01:54:14;10.77;;;4.20;;
48375;SDS011;34178;50.904;11.560;2023-10-08T01:56:43;10.70;;;3.90;;
48375;SDS011;34178;50.904;11.560;2023-10-08T01:59:09;9.63;;;4.35;;
48375;SDS011;34178;50.904;11.560;2023-10-08T02:01:37;12.98;;;4.53;;
48375;SDS011;34178;50.904;11.560;2023-10-08T02:04:04;14.85;;;4.57;;
48375;SDS011;34178;50.904;11.560;2023-10-08T02:06:32;15.07;;;4.85;;
48375;SDS011;34178;50.904;11.560;2023-10-08T02:08:59;11.18;;;4.53;;
48375;SDS011;34178;50.904;11.560;2023-10-08T02:11:31;13.00;;;4.57;;
48375;SDS011;34178;50.904;11.560;2023-10-08T02:13:57;15.93;;;4.85;;
48375;SDS011;34178;50.904;11.560;2023-10-08T02:16:22;14.68;;;4.32;;
48375;SDS011;34178;50.904;11.560;2023-10-08T02:18:48;10.82;;;4.13;;
48375;SDS011;34178;50.904;11.560;2023-10-08T02:21:16;12.88;;;4.93;;
48375;SDS011;34178;50.904;11.560;2023-10-08T02:23:42;9.95;;;4.65;;
48375;SDS011;34178;50.904;11.560;2023-10-08T02:26:08;12.98;;;4.70;;
48375;SDS011;34178;50.904;11.560;2023-10-08T02:28:35;10.90;;;4.85;;
48375;SDS011;34178;50.904;11.560;2023-10-08T02:31:03;13.05;;;5.20;;
48375;SDS011;34178;50.904;11.560;2023-10-08T02:33:29;11.63;;;4.63;;
48375;SDS011;34178;50.904;11.560;2023-10-08T02:35:55;16.83;;;4.97;;
48375;SDS011;34178;50.904;11.560;2023-10-08T02:38:21;11.52;;;4.72;;
48375;SDS011;34178;50.904;11.560;2023-10-08T02:40:48;11.00;;;4.88;;
48375;SDS011;34178;50.904;11.560;2023-10-08T02:43:14;13.07;;;4.72;;
48375;SDS011;34178;50.904;11.560;2023-10-08T02:45:40;13.07;;;5.15;;
48375;SDS011;34178;50.904;11.560;2023-10-08T02:48:07;10.45;;;4.50;;
48375;SDS011;34178;50.904;11.560;2023-10-08T02:50:40;16.50;;;5.38;;
48375;SDS011;34178;50.904;11.560;2023-10-08T02:53:10;10.70;;;4.75;;
48375;SDS011;34178;50.904;11.560;2023-10-08T02:55:37;13.77;;;4.68;;
48375;SDS011;34178;50.904;11.560;2023-10-08T02:58:09;12.25;;;4.78;;
48375;SDS011;34178;50.904;11.560;2023-10-08T03:00:44;16.25;;;4.80;;
48375;SDS011;34178;50.904;11.560;2023-10-08T03:03:12;11.75;;;4.90;;
48375;SDS011;34178;50.904;11.560;2023-10-08T03:05:44;12.30;;;5.10;;
48375;SDS011;34178;50.904;11.560;2023-10-08T03:08:11;14.13;;;5.45;;
48375;SDS011;34178;50.904;11.560;2023-10-08T03:10:38;17.27;;;5.50;;
48375;SDS011;34178;50.904;11.560;2023-10-08T03:13:06;13.65;;;4.95;;
48375;SDS011;34178;50.904;11.560;2023-10-08T03:15:35;12.25;;;5.15;;
48375;SDS011;34178;50.904;11.560;2023-10-08T03:20:39;13.48;;;5.45;;
48375;SDS011;34178;50.904;11.560;2023-10-08T03:23:14;16.90;;;5.88;;
48375;SDS011;34178;50.904;11.560;2023-10-08T03:25:58;14.77;;;5.45;;
48375;SDS011;34178;50.904;11.560;2023-10-08T03:28:43;14.48;;;5.75;;
48375;SDS011;34178;50.904;11.560;2023-10-08T03:31:09;15.30;;;5.82;;
48375;SDS011;34178;50.904;11.560;2023-10-08T03:33:41;15.43;;;5.47;;
48375;SDS011;34178;50.904;11.560;2023-10-08T03:36:08;13.23;;;4.65;;
48375;SDS011;34178;50.904;11.560;2023-10-08T03:38:39;13.60;;;5.25;;
48375;SDS011;34178;50.904;11.560;2023-10-08T03:41:24;8.10;;;3.60;;
48375;SDS011;34178;50.904;11.560;2023-10-08T03:43:54;10.52;;;3.30;;
48375;SDS011;34178;50.904;11.560;2023-10-08T03:46:32;9.90;;;2.70;;
48375;SDS011;34178;50.904;11.560;2023-10-08T03:49:07;4.90;;;2.10;;
48375;SDS011;34178;50.904;11.560;2023-10-08T03:51:50;4.15;;;1.20;;
48375;SDS011;34178;50.904;11.560;2023-10-08T03:54:17;2.67;;;1.30;;
48375;SDS011;34178;50.904;11.560;2023-10-08T03:56:44;5.95;;;1.30;;
48375;SDS011;34178;50.904;11.560;2023-10-08T03:59:12;2.47;;;1.00;;
48375;SDS011;34178;50.904;11.560;2023-10-08T04:01:41;3.85;;;1.15;;
48375;SDS011;34178;50.904;11.560;2023-10-08T04:04:08;3.92;;;0.88;;
48375;SDS011;34178;50.904;11.560;2023-10-08T04:06:40;2.53;;;0.85;;
48375;SDS011;34178;50.904;11.560;2023-10-08T04:09:19;3.08;;;0.95;;
48375;SDS011;34178;50.904;11.560;2023-10-08T04:11:45;2.28;;;1.00;;
48375;SDS011;34178;50.904;11.560;2023-10-08T04:14:20;2.50;;;0.80;;
48375;SDS011;34178;50.904;11.560;2023-10-08T04:16:50;4.43;;;1.33;;
48375;SDS011;34178;50.904;11.560;2023-10-08T04:19:17;4.05;;;2.30;;
48375;SDS011;34178;50.904;11.560;2023-10-08T04:21:44;4.35;;;2.38;;
48375;SDS011;34178;50.904;11.560;2023-10-08T04:24:11;3.53;;;1.95;;
48375;SDS011;34178;50.904;11.560;2023-10-08T04:26:39;3.05;;;1.60;;
48375;SDS011;34178;50.904;11.560;2023-10-08T04:29:06;2.10;;;1.10;;
48375;SDS011;34178;50.904;11.560;2023-10-08T04:31:32;2.58;;;1.08;;
48375;SDS011;34178;50.904;11.560;2023-10-08T04:34:09;2.70;;;1.48;;
48375;SDS011;34178;50.904;11.560;2023-10-08T04:36:43;2.63;;;1.30;;
48375;SDS011;34178;50.904;11.560;2023-10-08T04:39:18;1.85;;;0.88;;
48375;SDS011;34178;50.904;11.560;2023-10-08T04:42:04;1.08;;;0.70;;
48375;SDS011;34178;50.904;11.560;2023-10-08T04:44:38;2.90;;;1.50;;
48375;SDS011;34178;50.904;11.560;2023-10-08T04:47:06;2.78;;;1.55;;
48375;SDS011;34178;50.904;11.560;2023-10-08T04:49:53;6.35;;;2.70;;
48375;SDS011;34178;50.904;11.560;2023-10-08T04:52:18;6.00;;;3.45;;
48375;SDS011;34178;50.904;11.560;2023-10-08T04:54:45;4.80;;;2.60;;
48375;SDS011;34178;50.904;11.560;2023-10-08T04:57:17;6.18;;;3.42;;
48375;SDS011;34178;50.904;11.560;2023-10-08T05:02:15;5.35;;;2.75;;
48375;SDS011;34178;50.904;11.560;2023-10-08T05:04:48;4.75;;;2.38;;
48375;SDS011;34178;50.904;11.560;2023-10-08T05:07:20;4.10;;;1.98;;
48375;SDS011;34178;50.904;11.560;2023-10-08T05:10:05;2.70;;;1.60;;
48375;SDS011;34178;50.904;11.560;2023-10-08T05:12:31;2.50;;;1.40;;
48375;SDS011;34178;50.904;11.560;2023-10-08T05:14:57;2.15;;;1.20;;
48375;SDS011;34178;50.904;11.560;2023-10-08T05:17:44;2.13;;;1.15;;
48375;SDS011;34178;50.904;11.560;2023-10-08T05:20:14;1.45;;;0.95;;
48375;SDS011;34178;50.904;11.560;2023-10-08T05:23:06;2.08;;;1.15;;
48375;SDS011;34178;50.904;11.560;2023-10-08T05:25:47;2.55;;;1.30;;
48375;SDS011;34178;50.904;11.560;2023-10-08T05:28:40;3.42;;;1.60;;
48375;SDS011;34178;50.904;11.560;2023-10-08T05:31:25;4.25;;;2.25;;
48375;SDS011;34178;50.904;11.560;2023-10-08T05:34:06;5.20;;;3.20;;
48375;SDS011;34178;50.904;11.560;2023-10-08T05:36:58;5.20;;;2.95;;
48375;SDS011;34178;50.904;11.560;2023-10-08T05:39:29;5.65;;;3.15;;
48375;SDS011;34178;50.904;11.560;2023-10-08T05:42:08;6.32;;;3.83;;
48375;SDS011;34178;50.904;11.560;2023-10-08T05:44:56;4.15;;;2.20;;
48375;SDS011;34178;50.904;11.560;2023-10-08T05:47:45;3.30;;;1.75;;
48375;SDS011;34178;50.904;11.560;2023-10-08T05:50:31;4.28;;;2.25;;
48375;SDS011;34178;50.904;11.560;2023-10-08T05:53:20;3.80;;;2.05;;
48375;SDS011;34178;50.904;11.560;2023-10-08T05:56:05;3.47;;;1.77;;
48375;SDS011;34178;50.904;11.560;2023-10-08T05:58:51;3.85;;;1.95;;
48375;SDS011;34178;50.904;11.560;2023-10-08T06:01:36;2.97;;;1.50;;
48375;SDS011;34178;50.904;11.560;2023-10-08T06:04:06;3.85;;;1.80;;
48375;SDS011;34178;50.904;11.560;2023-10-08T06:07:07;4.10;;;1.80;;
48375;SDS011;34178;50.904;11.560;2023-10-08T06:09:48;3.55;;;1.60;;
48375;SDS011;34178;50.904;11.560;2023-10-08T06:12:26;3.78;;;1.95;;
48375;SDS011;34178;50.904;11.560;2023-10-08T06:14:55;6.70;;;2.20;;
48375;SDS011;34178;50.904;11.560;2023-10-08T06:17:34;3.08;;;1.40;;
48375;SDS011;34178;50.904;11.560;2023-10-08T06:20:20;3.72;;;1.65;;
48375;SDS011;34178;50.904;11.560;2023-10-08T06:22:50;3.67;;;1.70;;
48375;SDS011;34178;50.904;11.560;2023-10-08T06:25:19;7.65;;;5.13;;
48375;SDS011;34178;50.904;11.560;2023-10-08T06:27:49;8.27;;;5.82;;
48375;SDS011;34178;50.904;11.560;2023-10-08T06:30:20;4.57;;;2.03;;
48375;SDS011;34178;50.904;11.560;2023-10-08T06:32:46;2.08;;;1.10;;
48375;SDS011;34178;50.904;11.560;2023-10-08T06:35:15;1.92;;;0.90;;
48375;SDS011;34178;50.904;11.560;2023-10-08T06:37:44;1.58;;;0.70;;
48375;SDS011;34178;50.904;11.560;2023-10-08T06:40:14;1.52;;;0.70;;
48375;SDS011;34178;50.904;11.560;2023-10-08T06:42:59;1.33;;;0.60;;
48375;SDS011;34178;50.904;11.560;2023-10-08T06:45:36;1.50;;;0.55;;
48375;SDS011;34178;50.904;11.560;2023-10-08T06:48:06;1.77;;;0.90;;
48375;SDS011;34178;50.904;11.560;2023-10-08T06:50:32;2.15;;;0.75;;
48375;SDS011;34178;50.904;11.560;2023-10-08T06:53:03;1.02;;;0.43;;
48375;SDS011;34178;50.904;11.560;2023-10-08T06:55:36;2.33;;;0.93;;
48375;SDS011;34178;50.904;11.560;2023-10-08T06:58:03;1.27;;;0.80;;
48375;SDS011;34178;50.904;11.560;2023-10-08T07:00:31;3.30;;;1.25;;
48375;SDS011;34178;50.904;11.560;2023-10-08T07:03:20;3.83;;;1.63;;
48375;SDS011;34178;50.904;11.560;2023-10-08T07:05:46;1.90;;;0.95;;
48375;SDS011;34178;50.904;11.560;2023-10-08T07:08:23;1.45;;;0.60;;
48375;SDS011;34178;50.904;11.560;2023-10-08T07:10:50;1.17;;;0.45;;
48375;SDS011;34178;50.904;11.560;2023-10-08T07:13:16;0.85;;;0.30;;
48375;SDS011;34178;50.904;11.560;2023-10-08T07:15:45;0.93;;;0.30;;
48375;SDS011;34178;50.904;11.560;2023-10-08T07:18:11;1.30;;;0.40;;
48375;SDS011;34178;50.904;11.560;2023-10-08T07:20:44;0.47;;;0.32;;
48375;SDS011;34178;50.904;11.560;2023-10-08T07:23:11;2.05;;;0.80;;
48375;SDS011;34178;50.904;11.560;2023-10-08T07:25:59;2.60;;;0.50;;
48375;SDS011;34178;50.904;11.560;2023-10-08T07:28:49;2.45;;;1.15;;
48375;SDS011;34178;50.904;11.560;2023-10-08T07:31:22;4.50;;;0.90;;
48375;SDS011;34178;50.904;11.560;2023-10-08T07:33:50;3.08;;;1.10;;
48375;SDS011;34178;50.904;11.560;2023-10-08T07:36:40;2.75;;;0.90;;
48375;SDS011;34178;50.904;11.560;2023-10-08T07:39:05;2.10;;;0.88;;
48375;SDS011;34178;50.904;11.560;2023-10-08T07:41:33;6.43;;;1.88;;
48375;SDS011;34178;50.904;11.560;2023-10-08T07:43:59;7.93;;;1.30;;
48375;SDS011;34178;50.904;11.560;2023-10-08T07:46:25;4.15;;;1.80;;
48375;SDS011;34178;50.904;11.560;2023-10-08T07:48:54;9.02;;;6.00;;
48375;SDS011;34178;50.904;11.560;2023-10-08T07:51:20;3.92;;;1.27;;
48375;SDS011;34178;50.904;11.560;2023-10-08T07:53:49;2.70;;;1.55;;
48375;SDS011;34178;50.904;11.560;2023-10-08T07:56:24;3.90;;;1.00;;
48375;SDS011;34178;50.904;11.560;2023-10-08T07:58:51;4.10;;;1.63;;
48375;SDS011;34178;50.904;11.560;2023-10-08T08:01:17;2.63;;;1.00;;
48375;SDS011;34178;50.904;11.560;2023-10-08T08:03:45;3.75;;;0.85;;
48375;SDS011;34178;50.904;11.560;2023-10-08T08:06:13;3.88;;;1.02;;
48375;SDS011;34178;50.904;11.560;2023-10-08T08:08:40;4.45;;;1.00;;
48375;SDS011;34178;50.904;11.560;2023-10-08T08:11:07;8.00;;;1.15;;
48375;SDS011;34178;50.904;11.560;2023-10-08T08:13:43;4.40;;;1.08;;
48375;SDS011;34178;50.904;11.560;2023-10-08T08:16:13;6.72;;;1.50;;
48375;SDS011;34178;50.904;11.560;2023-10-08T08:18:46;3.40;;;0.98;;
48375;SDS011;34178;50.904;11.560;2023-10-08T08:21:14;3.80;;;1.17;;
48375;SDS011;34178;50.904;11.560;2023-10-08T08:26:14;5.63;;;1.33;;
48375;SDS011;34178;50.904;11.560;2023-10-08T08:28:52;4.20;;;1.48;;
48375;SDS011;34178;50.904;11.560;2023-10-08T08:31:19;4.95;;;1.30;;
48375;SDS011;34178;50.904;11.560;2023-10-08T08:33:45;5.03;;;1.30;;
48375;SDS011;34178;50.904;11.560;2023-10-08T08:36:30;5.97;;;1.55;;
48375;SDS011;34178;50.904;11.560;2023-10-08T08:38:58;4.75;;;1.33;;
48375;SDS011;34178;50.904;11.560;2023-10-08T08:41:24;3.08;;;1.13;;
48375;SDS011;34178;50.904;11.560;2023-10-08T08:43:51;4.82;;;1.50;;
48375;SDS011;34178;50.904;11.560;2023-10-08T08:46:34;6.20;;;3.17;;
48375;SDS011;34178;50.904;11.560;2023-10-08T08:49:04;5.25;;;1.60;;
48375;SDS011;34178;50.904;11.560;2023-10-08T08:51:32;4.47;;;1.30;;
48375;SDS011;34178;50.904;11.560;2023-10-08T08:54:00;7.60;;;1.65;;
48375;SDS011;34178;50.904;11.560;2023-10-08T08:56:31;10.10;;;1.70;;
48375;SDS011;34178;50.904;11.560;2023-10-08T08:59:04;4.10;;;1.65;;
48375;SDS011;34178;50.904;11.560;2023-10-08T09:01:30;5.25;;;1.50;;
48375;SDS011;34178;50.904;11.560;2023-10-08T09:04:04;6.03;;;1.52;;
48375;SDS011;34178;50.904;11.560;2023-10-08T09:06:37;5.80;;;2.40;;
48375;SDS011;34178;50.904;11.560;2023-10-08T09:09:05;9.80;;;3.97;;
48375;SDS011;34178;50.904;11.560;2023-10-08T09:11:50;6.03;;;1.70;;
48375;SDS011;34178;50.904;11.560;2023-10-08T09:14:20;5.05;;;1.60;;
48375;SDS011;34178;50.904;11.560;2023-10-08T09:16:48;4.13;;;1.30;;
48375;SDS011;34178;50.904;11.560;2023-10-08T09:19:14;5.13;;;1.30;;
48375;SDS011;34178;50.904;11.560;2023-10-08T09:22:03;4.07;;;0.82;;
48375;SDS011;34178;50.904;11.560;2023-10-08T09:24:33;4.68;;;1.40;;
48375;SDS011;34178;50.904;11.560;2023-10-08T09:27:04;5.03;;;1.15;;
48375;SDS011;34178;50.904;11.560;2023-10-08T09:29:34;9.10;;;2.33;;
48375;SDS011;34178;50.904;11.560;2023-10-08T09:32:13;9.98;;;4.95;;
48375;SDS011;34178;50.904;11.560;2023-10-08T09:34:39;5.50;;;1.20;;
48375;SDS011;34178;50.904;11.560;2023-10-08T09:37:05;3.60;;;1.63;;
48375;SDS011;34178;50.904;11.560;2023-10-08T09:39:32;4.55;;;1.40;;
48375;SDS011;34178;50.904;11.560;2023-10-08T09:42:02;4.53;;;1.35;;
48375;SDS011;34178;50.904;11.560;2023-10-08T09:44:28;4.25;;;1.40;;
48375;SDS011;34178;50.904;11.560;2023-10-08T09:47:08;6.70;;;2.10;;
48375;SDS011;34178;50.904;11.560;2023-10-08T09:49:41;6.55;;;2.55;;
48375;SDS011;34178;50.904;11.560;2023-10-08T09:52:17;3.83;;;1.58;;
48375;SDS011;34178;50.904;11.560;2023-10-08T09:54:59;4.68;;;1.40;;
48375;SDS011;34178;50.904;11.560;2023-10-08T09:57:28;5.72;;;1.63;;
48375;SDS011;34178;50.904;11.560;2023-10-08T09:59:54;4.40;;;1.30;;
48375;SDS011;34178;50.904;11.560;2023-10-08T10:02:22;5.20;;;1.70;;
48375;SDS011;34178;50.904;11.560;2023-10-08T10:04:52;4.57;;;1.10;;
48375;SDS011;34178;50.904;11.560;2023-10-08T10:07:20;4.68;;;1.27;;
48375;SDS011;34178;50.904;11.560;2023-10-08T10:09:49;5.40;;;1.83;;
48375;SDS011;34178;50.904;11.560;2023-10-08T10:12:24;4.97;;;1.90;;
48375;SDS011;34178;50.904;11.560;2023-10-08T10:14:54;5.00;;;1.83;;
48375;SDS011;34178;50.904;11.560;2023-10-08T10:24:59;2.85;;;1.00;;
48375;SDS011;34178;50.904;11.560;2023-10-08T10:27:40;4.22;;;1.10;;
48375;SDS011;34178;50.904;11.560;2023-10-08T10:30:07;3.63;;;1.33;;
48375;SDS011;34178;50.904;11.560;2023-10-08T10:32:34;5.05;;;1.55;;
48375;SDS011;34178;50.904;11.560;2023-10-08T10:35:02;2.80;;;1.00;;
48375;SDS011;34178;50.904;11.560;2023-10-08T10:37:28;6.07;;;2.55;;
48375;SDS011;34178;50.904;11.560;2023-10-08T10:40:06;4.68;;;1.88;;
48375;SDS011;34178;50.904;11.560;2023-10-08T10:42:36;6.15;;;1.85;;
48375;SDS011;34178;50.904;11.560;2023-10-08T10:45:11;3.30;;;1.40;;
48375;SDS011;34178;50.904;11.560;2023-10-08T10:47:59;4.03;;;1.45;;
48375;SDS011;34178;50.904;11.560;2023-10-08T10:50:37;5.68;;;1.80;;
48375;SDS011;34178;50.904;11.560;2023-10-08T10:53:25;4.82;;;1.45;;
48375;SDS011;34178;50.904;11.560;2023-10-08T10:55:52;5.75;;;1.35;;
48375;SDS011;34178;50.904;11.560;2023-10-08T10:58:34;3.95;;;1.33;;
48375;SDS011;34178;50.904;11.560;2023-10-08T11:01:06;3.92;;;1.50;;
48375;SDS011;34178;50.904;11.560;2023-10-08T11:03:50;5.65;;;1.50;;
48375;SDS011;34178;50.904;11.560;2023-10-08T11:06:18;4.07;;;1.60;;
48375;SDS011;34178;50.904;11.560;2023-10-08T11:08:51;4.65;;;1.90;;
48375;SDS011;34178;50.904;11.560;2023-10-08T11:11:18;4.80;;;1.40;;
48375;SDS011;34178;50.904;11.560;2023-10-08T11:13:44;4.25;;;1.55;;
48375;SDS011;34178;50.904;11.560;2023-10-08T11:16:17;7.25;;;1.60;;
48375;SDS011;34178;50.904;11.560;2023-10-08T11:18:45;5.00;;;1.38;;
48375;SDS011;34178;50.904;11.560;2023-10-08T11:21:22;6.65;;;1.40;;
48375;SDS011;34178;50.904;11.560;2023-10-08T11:23:49;5.25;;;1.52;;
48375;SDS011;34178;50.904;11.560;2023-10-08T11:26:24;6.90;;;1.65;;
48375;SDS011;34178;50.904;11.560;2023-10-08T11:29:04;4.33;;;1.60;;
48375;SDS011;34178;50.904;11.560;2023-10-08T11:31:31;3.80;;;1.42;;
48375;SDS011;34178;50.904;11.560;2023-10-08T11:34:02;3.72;;;1.30;;
48375;SDS011;34178;50.904;11.560;2023-10-08T11:36:37;4.68;;;1.40;;
48375;SDS011;34178;50.904;11.560;2023-10-08T11:39:18;5.05;;;1.73;;
48375;SDS011;34178;50.904;11.560;2023-10-08T11:41:58;4.70;;;1.48;;
48375;SDS011;34178;50.904;11.560;2023-10-08T11:44:29;4.72;;;1.35;;
48375;SDS011;34178;50.904;11.560;2023-10-08T11:46:56;5.90;;;1.73;;
48375;SDS011;34178;50.904;11.560;2023-10-08T11:49:29;4.95;;;1.65;;
48375;SDS011;34178;50.904;11.560;2023-10-08T11:52:01;5.53;;;1.52;;
48375;SDS011;34178;50.904;11.560;2023-10-08T11:54:27;7.63;;;2.20;;
48375;SDS011;34178;50.904;11.560;2023-10-08T11:56:53;4.38;;;1.30;;
48375;SDS011;34178;50.904;11.560;2023-10-08T11:59:20;6.97;;;1.98;;
48375;SDS011;34178;50.904;11.560;2023-10-08T12:01:49;4.50;;;1.50;;
48375;SDS011;34178;50.904;11.560;2023-10-08T12:04:16;4.68;;;1.40;;
48375;SDS011;34178;50.904;11.560;2023-10-08T12:06:42;4.85;;;1.48;;
48375;SDS011;34178;50.904;11.560;2023-10-08T12:09:17;8.05;;;1.63;;
48375;SDS011;34178;50.904;11.560;2023-10-08T12:11:46;7.67;;;1.73;;
48375;SDS011;34178;50.904;11.560;2023-10-08T12:14:12;5.45;;;1.98;;
48375;SDS011;34178;50.904;11.560;2023-10-08T12:16:39;6.97;;;1.65;;
48375;SDS011;34178;50.904;11.560;2023-10-08T12:19:06;7.53;;;1.80;;
48375;SDS011;34178;50.904;11.560;2023-10-08T12:21:41;4.63;;;1.50;;
48375;SDS011;34178;50.904;11.560;2023-10-08T12:24:07;4.80;;;1.52;;
48375;SDS011;34178;50.904;11.560;2023-10-08T12:26:37;6.38;;;1.63;;
48375;SDS011;34178;50.904;11.560;2023-10-08T12:29:10;5.05;;;1.55;;
48375;SDS011;34178;50.904;11.560;2023-10-08T12:31:41;3.60;;;1.50;;
48375;SDS011;34178;50.904;11.560;2023-10-08T12:34:12;4.38;;;1.50;;
48375;SDS011;34178;50.904;11.560;2023-10-08T12:36:38;4.45;;;1.33;;
48375;SDS011;34178;50.904;11.560;2023-10-08T12:39:04;4.70;;;1.67;;
48375;SDS011;34178;50.904;11.560;2023-10-08T12:41:53;4.22;;;1.20;;
48375;SDS011;34178;50.904;11.560;2023-10-08T12:44:18;4.28;;;1.63;;
48375;SDS011;34178;50.904;11.560;2023-10-08T12:46:44;4.05;;;1.33;;
48375;SDS011;34178;50.904;11.560;2023-10-08T12:49:13;4.63;;;1.70;;
48375;SDS011;34178;50.904;11.560;2023-10-08T12:51:39;5.05;;;1.80;;
48375;SDS011;34178;50.904;11.560;2023-10-08T12:54:06;3.70;;;1.27;;
48375;SDS011;34178;50.904;11.560;2023-10-08T12:56:33;5.13;;;1.60;;
48375;SDS011;34178;50.904;11.560;2023-10-08T12:59:21;4.90;;;1.65;;
48375;SDS011;34178;50.904;11.560;2023-10-08T13:01:47;3.95;;;1.33;;
48375;SDS011;34178;50.904;11.560;2023-10-08T13:04:19;4.28;;;1.30;;
48375;SDS011;34178;50.904;11.560;2023-10-08T13:07:00;3.83;;;1.45;;
48375;SDS011;34178;50.904;11.560;2023-10-08T13:09:27;7.10;;;1.60;;
48375;SDS011;34178;50.904;11.560;2023-10-08T13:11:56;4.50;;;1.30;;
48375;SDS011;34178;50.904;11.560;2023-10-08T13:14:24;7.63;;;1.30;;
48375;SDS011;34178;50.904;11.560;2023-10-08T13:16:50;6.10;;;1.83;;
48375;SDS011;34178;50.904;11.560;2023-10-08T13:19:19;4.15;;;1.50;;
48375;SDS011;34178;50.904;11.560;2023-10-08T13:21:45;4.22;;;1.52;;
48375;SDS011;34178;50.904;11.560;2023-10-08T13:24:11;6.03;;;2.45;;
48375;SDS011;34178;50.904;11.560;2023-10-08T13:26:37;4.88;;;1.48;;
48375;SDS011;34178;50.904;11.560;2023-10-08T13:29:03;8.32;;;1.80;;
48375;SDS011;34178;50.904;11.560;2023-10-08T13:31:30;3.70;;;1.30;;
48375;SDS011;34178;50.904;11.560;2023-10-08T13:34:01;11.15;;;5.32;;
48375;SDS011;34178;50.904;11.560;2023-10-08T13:36:28;30.70;;;17.60;;
48375;SDS011;34178;50.904;11.560;2023-10-08T13:38:55;45.28;;;26.83;;
48375;SDS011;34178;50.904;11.560;2023-10-08T13:41:21;6.30;;;2.50;;
48375;SDS011;34178;50.904;11.560;2023-10-08T13:43:48;3.28;;;1.30;;
48375;SDS011;34178;50.904;11.560;2023-10-08T13:46:17;4.20;;;1.45;;
48375;SDS011;34178;50.904;11.560;2023-10-08T13:48:45;4.07;;;1.30;;
48375;SDS011;34178;50.904;11.560;2023-10-08T13:51:13;6.07;;;1.50;;
48375;SDS011;34178;50.904;11.560;2023-10-08T13:53:47;3.92;;;1.45;;
48375;SDS011;34178;50.904;11.560;2023-10-08T13:56:17;5.40;;;1.48;;
48375;SDS011;34178;50.904;11.560;2023-10-08T13:58:50;5.47;;;1.50;;
48375;SDS011;34178;50.904;11.560;2023-10-08T14:01:21;7.18;;;3.28;;
48375;SDS011;34178;50.904;11.560;2023-10-08T14:03:47;5.40;;;1.50;;
48375;SDS011;34178;50.904;11.560;2023-10-08T14:06:16;4.07;;;1.65;;
48375;SDS011;34178;50.904;11.560;2023-10-08T14:08:43;3.08;;;1.33;;
48375;SDS011;34178;50.904;11.560;2023-10-08T14:11:17;3.70;;;1.25;;
48375;SDS011;34178;50.904;11.560;2023-10-08T14:13:43;4.10;;;1.40;;
48375;SDS011;34178;50.904;11.560;2023-10-08T14:16:12;4.75;;;1.23;;
48375;SDS011;34178;50.904;11.560;2023-10-08T14:18:39;5.63;;;1.48;;
48375;SDS011;34178;50.904;11.560;2023-10-08T14:21:07;4.32;;;1.88;;
48375;SDS011;34178;50.904;11.560;2023-10-08T14:23:37;3.17;;;1.33;;
48375;SDS011;34178;50.904;11.560;2023-10-08T14:26:07;4.35;;;1.30;;
48375;SDS011;34178;50.904;11.560;2023-10-08T14:28:34;4.20;;;1.50;;
48375;SDS011;34178;50.904;11.560;2023-10-08T14:31:08;3.72;;;1.45;;
48375;SDS011;34178;50.904;11.560;2023-10-08T14:33:34;5.00;;;1.65;;
48375;SDS011;34178;50.904;11.560;2023-10-08T14:36:08;4.80;;;2.10;;
48375;SDS011;34178;50.904;11.560;2023-10-08T14:38:53;5.13;;;1.50;;
48375;SDS011;34178;50.904;11.560;2023-10-08T14:41:50;4.40;;;1.60;;
48375;SDS011;34178;50.904;11.560;2023-10-08T14:44:34;4.72;;;1.52;;
48375;SDS011;34178;50.904;11.560;2023-10-08T14:47:00;4.75;;;1.40;;
48375;SDS011;34178;50.904;11.560;2023-10-08T14:49:26;3.78;;;1.40;;
48375;SDS011;34178;50.904;11.560;2023-10-08T14:51:51;4.68;;;1.60;;
48375;SDS011;34178;50.904;11.560;2023-10-08T14:54:19;3.72;;;1.23;;
48375;SDS011;34178;50.904;11.560;2023-10-08T14:56:46;3.67;;;1.30;;
48375;SDS011;34178;50.904;11.560;2023-10-08T14:59:12;3.83;;;1.40;;
48375;SDS011;34178;50.904;11.560;2023-10-08T15:01:40;4.32;;;1.42;;
48375;SDS011;34178;50.904;11.560;2023-10-08T15:04:06;4.38;;;1.42;;
48375;SDS011;34178;50.904;11.560;2023-10-08T15:06:35;3.17;;;1.20;;
48375;SDS011;34178;50.904;11.560;2023-10-08T15:09:00;4.38;;;1.40;;
48375;SDS011;34178;50.904;11.560;2023-10-08T15:11:26;5.03;;;1.40;;
48375;SDS011;34178;50.904;11.560;2023-10-08T15:13:55;3.25;;;1.33;;
48375;SDS011;34178;50.904;11.560;2023-10-08T15:16:21;3.55;;;1.23;;